EDDP/LEJ METAR and TAF weather

Enter ICAO airport designator
Station Type Date Time Source
EDDP METAR 2018/10/21 05:50 UTC NOAA

EDDP 210550Z 33002KT 9999 SCT023 06/05 Q1029 NOSIG


Station Type Date Time Source
EDDP Decoded METAR 2018/10/21 05:50 UTC NOAA

Leipzig-Schkeuditz, Germany (EDDP) 51-25N 012-14E 149M
Oct 21, 2018 - 01:50 AM EDT / 2018.10.21 0550 UTC
Wind: from the NNW (330 degrees) at 2 MPH (2 KT):0
Visibility: greater than 7 mile(s):0
Sky conditions: partly cloudy
Temperature: 42 F (6 C)
Dew Point: 41 F (5 C)
Relative Humidity: 93%
Pressure (altimeter): 30.39 in. Hg (1029 hPa)
ob: EDDP 210550Z 33002KT 9999 SCT023 06/05 Q1029 NOSIG
cycle: 6

Station Type Date Time Source
EDDP TAF 2018/10/21 06:27 UTC NOAA

TAF EDDP 210500Z 2106/2206 16004KT 9999 FEW035
BECMG 2119/2121 22006KT


Example: see airport list